Time;durP1;ratioP1;P1;durP2;ratioP2;P2;SDS_P1;SDS_P2;PMS_P1;PMS_P2;Temp;Humidity;BMP_temperature;BMP_pressure;BME280_temperature;BME280_humidity;BME280_pressure;Samples;Min_cycle;Max_cycle;Signal;HPM_P1;HPM_P2
2021/12/14 00:01:16;;;;;;;12.60;10.82;;;8.70;99.90;;;;;;4846213;29;20037;-90
2021/12/14 00:03:45;;;;;;;12.68;10.00;;;8.70;99.90;;;;;;4854063;29;20090;-88
2021/12/14 00:06:16;;;;;;;13.50;10.20;;;8.70;99.90;;;;;;4857616;29;20052;-88
2021/12/14 00:08:56;;;;;;;12.00;9.77;;;8.60;99.90;;;;;;4852876;29;20113;-90
2021/12/14 00:16:48;;;;;;;16.13;11.20;;;8.70;99.90;;;;;;4883265;29;20018;-89
2021/12/14 00:19:15;;;;;;;15.38;11.35;;;8.70;99.90;;;;;;4865617;29;20049;-91
2021/12/14 00:21:50;;;;;;;13.95;11.60;;;8.70;99.90;;;;;;4858622;29;20018;-89
2021/12/14 00:24:21;;;;;;;13.45;11.38;;;8.70;99.90;;;;;;4868332;29;20044;-90
2021/12/14 00:27:06;;;;;;;12.50;10.48;;;8.70;99.90;;;;;;4868360;29;20045;-90
2021/12/14 00:29:41;;;;;;;13.77;10.75;;;8.70;99.90;;;;;;4866774;29;20058;-89
2021/12/14 00:32:13;;;;;;;13.55;10.20;;;8.70;99.90;;;;;;4859295;29;20055;-91
2021/12/14 00:34:42;;;;;;;13.43;10.40;;;8.70;99.90;;;;;;4867594;29;20097;-90
2021/12/14 00:37:35;;;;;;;13.48;10.82;;;8.70;99.90;;;;;;4867535;29;20017;-90
2021/12/14 00:40:09;;;;;;;14.88;11.10;;;8.70;99.90;;;;;;4865634;29;20018;-90
2021/12/14 00:42:35;;;;;;;13.25;10.57;;;8.70;99.90;;;;;;4865032;29;20089;-92
2021/12/14 00:45:05;;;;;;;13.88;10.52;;;8.70;99.90;;;;;;4876302;29;20053;-90
2021/12/14 00:47:30;;;;;;;14.32;10.90;;;8.70;99.90;;;;;;4843200;29;20041;-93
2021/12/14 00:49:56;;;;;;;15.07;11.60;;;8.70;99.90;;;;;;4842636;29;20025;-90
2021/12/14 00:52:25;;;;;;;13.93;11.57;;;8.70;99.90;;;;;;4840890;29;20042;-89
2021/12/14 00:54:51;;;;;;;18.25;12.43;;;8.70;99.90;;;;;;4840341;29;20037;-90
2021/12/14 00:57:17;;;;;;;15.20;12.60;;;8.70;99.90;;;;;;4839917;29;20036;-92
2021/12/14 00:59:47;;;;;;;17.75;13.63;;;8.70;99.90;;;;;;4855728;29;20026;-90
2021/12/14 01:02:22;;;;;;;16.02;12.77;;;8.70;99.90;;;;;;4838078;29;20021;-90
2021/12/14 01:04:53;;;;;;;14.55;11.90;;;8.70;99.90;;;;;;4839861;29;20070;-91
2021/12/14 01:07:24;;;;;;;16.10;12.10;;;8.70;99.90;;;;;;4835146;29;20395;-91
2021/12/14 01:09:53;;;;;;;13.70;10.88;;;8.60;99.90;;;;;;4840106;29;20041;-90
2021/12/14 01:12:31;;;;;;;16.73;13.73;;;8.70;99.90;;;;;;4835122;29;20543;-89
2021/12/14 01:20:52;;;;;;;14.25;11.52;;;8.60;99.90;;;;;;4831961;29;20042;-90
2021/12/14 01:23:30;;;;;;;15.60;12.13;;;8.60;99.90;;;;;;4836719;29;20034;-90
2021/12/14 01:25:59;;;;;;;16.55;11.65;;;8.70;99.90;;;;;;4832280;29;20067;-90
2021/12/14 01:28:27;;;;;;;16.20;12.68;;;8.70;99.90;;;;;;4832946;29;20021;-91
2021/12/14 01:31:13;;;;;;;15.48;12.60;;;8.60;99.90;;;;;;4839242;29;20350;-92
2021/12/14 01:33:42;;;;;;;17.45;13.73;;;8.60;99.90;;;;;;4838796;29;20025;-89
2021/12/14 01:36:23;;;;;;;16.05;13.13;;;8.60;99.90;;;;;;4836434;29;20105;-91
2021/12/14 01:39:09;;;;;;;16.05;13.25;;;8.60;99.90;;;;;;4835752;29;20063;-91
2021/12/14 01:41:36;;;;;;;17.75;13.88;;;8.60;99.90;;;;;;4833215;29;20052;-91
2021/12/14 01:44:02;;;;;;;17.63;14.90;;;8.60;99.90;;;;;;4830277;29;20496;-91
2021/12/14 01:46:32;;;;;;;17.17;14.35;;;8.60;99.90;;;;;;4844102;29;20049;-90
2021/12/14 01:49:04;;;;;;;19.17;15.15;;;8.60;99.90;;;;;;4846237;29;20026;-91
2021/12/14 01:51:30;;;;;;;21.15;17.10;;;8.50;99.90;;;;;;4846746;29;20030;-91
2021/12/14 01:53:56;;;;;;;21.05;17.13;;;8.50;99.90;;;;;;4847049;29;20070;-91
2021/12/14 01:56:25;;;;;;;23.10;17.88;;;8.50;99.90;;;;;;4845965;29;20048;-89
2021/12/14 01:58:58;;;;;;;21.05;16.48;;;8.50;99.90;;;;;;4846596;29;20041;-89
2021/12/14 02:01:37;;;;;;;20.55;15.63;;;8.50;99.90;;;;;;4845803;29;20033;-91
2021/12/14 02:04:14;;;;;;;22.75;16.00;;;8.50;99.90;;;;;;4845852;29;20189;-90
2021/12/14 02:06:39;;;;;;;21.42;16.70;;;8.50;99.90;;;;;;4845395;29;20385;-89
2021/12/14 02:09:10;;;;;;;20.48;16.15;;;8.50;99.90;;;;;;4861985;29;20032;-90
2021/12/14 02:11:47;;;;;;;20.30;15.95;;;8.50;99.90;;;;;;4845826;29;20066;-89
2021/12/14 02:14:13;;;;;;;19.58;15.13;;;8.50;99.90;;;;;;4845151;29;20025;-90
2021/12/14 02:16:40;;;;;;;20.08;15.98;;;8.50;99.90;;;;;;4845676;29;20025;-90
2021/12/14 02:19:11;;;;;;;19.75;15.50;;;8.50;99.90;;;;;;4862611;29;20054;-89
2021/12/14 02:21:38;;;;;;;20.33;15.68;;;8.50;99.90;;;;;;4845224;29;20032;-90
2021/12/14 02:24:06;;;;;;;20.10;15.85;;;8.50;99.90;;;;;;4845789;29;20519;-87
2021/12/14 02:26:35;;;;;;;19.02;14.88;;;8.50;99.90;;;;;;4850392;29;20096;-90
2021/12/14 02:29:05;;;;;;;18.55;15.13;;;8.50;99.90;;;;;;4858385;29;20035;-89
2021/12/14 02:31:33;;;;;;;21.48;16.63;;;8.50;99.90;;;;;;4845914;29;20481;-88
2021/12/14 02:34:04;;;;;;;19.35;14.90;;;8.50;99.90;;;;;;4845962;29;20034;-90
2021/12/14 02:36:46;;;;;;;22.25;17.77;;;8.50;99.90;;;;;;4846591;29;20556;-90
2021/12/14 02:42:01;;;;;;;22.17;17.42;;;8.50;99.90;;;;;;4863764;29;20523;-88
2021/12/14 02:44:26;;;;;;;23.05;18.90;;;8.50;99.90;;;;;;4863981;29;20476;-89
2021/12/14 02:47:02;;;;;;;21.95;17.42;;;8.50;99.90;;;;;;4851599;29;20054;-89
2021/12/14 02:49:31;;;;;;;24.33;17.40;;;8.50;99.90;;;;;;4867872;29;20061;-90
2021/12/14 02:52:03;;;;;;;24.55;18.85;;;8.50;99.90;;;;;;4851403;29;20018;-91
2021/12/14 02:54:36;;;;;;;24.40;18.20;;;8.50;99.90;;;;;;4850061;29;20609;-91
2021/12/14 02:57:26;;;;;;;22.98;17.13;;;8.50;99.90;;;;;;4869725;29;20033;-89
2021/12/14 02:59:54;;;;;;;23.92;17.55;;;8.50;99.90;;;;;;4846903;29;20048;-90
2021/12/14 03:02:31;;;;;;;21.45;16.75;;;8.50;99.90;;;;;;4851414;29;20048;-91
2021/12/14 03:05:09;;;;;;;24.13;17.98;;;8.50;99.90;;;;;;4851392;29;20021;-89
2021/12/14 03:07:43;;;;;;;23.42;18.20;;;8.50;99.90;;;;;;4850960;29;20037;-90
2021/12/14 03:12:49;;;;;;;24.10;18.02;;;8.50;99.90;;;;;;4867708;29;20041;-89
2021/12/14 03:15:31;;;;;;;23.17;17.33;;;8.50;99.90;;;;;;4851260;29;20021;-90
2021/12/14 03:18:01;;;;;;;24.25;16.67;;;8.50;99.90;;;;;;4851644;29;20061;-89
2021/12/14 03:20:39;;;;;;;22.80;17.00;;;8.50;99.90;;;;;;4835917;29;20053;-89
2021/12/14 03:23:20;;;;;;;23.10;16.67;;;8.50;99.90;;;;;;4851276;29;20029;-89
2021/12/14 03:25:49;;;;;;;21.25;16.20;;;8.40;99.90;;;;;;4867950;29;20099;-90
2021/12/14 03:28:18;;;;;;;21.73;16.05;;;8.50;99.90;;;;;;4851187;29;20033;-90
2021/12/14 03:30:46;;;;;;;23.80;17.65;;;8.50;99.90;;;;;;4850733;29;20025;-87
2021/12/14 03:33:19;;;;;;;22.77;16.55;;;8.50;99.90;;;;;;4851905;29;20037;-90
2021/12/14 03:35:59;;;;;;;26.47;18.87;;;8.40;99.90;;;;;;4850314;29;20400;-91
2021/12/14 03:38:33;;;;;;;28.88;20.15;;;8.40;99.90;;;;;;4850561;29;20026;-89
2021/12/14 03:41:14;;;;;;;26.38;18.20;;;8.40;99.90;;;;;;4850690;29;20041;-90
2021/12/14 03:43:44;;;;;;;27.42;18.50;;;8.40;99.90;;;;;;4850362;29;20029;-90
2021/12/14 03:46:10;;;;;;;28.05;19.25;;;8.40;99.90;;;;;;4849990;29;20053;-90
2021/12/14 03:48:37;;;;;;;24.63;17.63;;;8.40;99.90;;;;;;4850826;29;20034;-91
2021/12/14 03:51:04;;;;;;;25.85;18.63;;;8.40;99.90;;;;;;4849970;29;20045;-91
2021/12/14 03:53:30;;;;;;;25.52;18.52;;;8.40;99.90;;;;;;4850187;29;20023;-89
2021/12/14 03:55:59;;;;;;;28.35;19.55;;;8.40;99.90;;;;;;4850170;29;20033;-91
2021/12/14 03:58:30;;;;;;;26.42;18.80;;;8.40;99.90;;;;;;4851136;29;20104;-91
2021/12/14 04:01:05;;;;;;;25.30;17.95;;;8.40;99.90;;;;;;4850996;29;20488;-89
2021/12/14 04:03:31;;;;;;;24.33;17.90;;;8.40;99.90;;;;;;4851524;29;20055;-87
2021/12/14 04:05:57;;;;;;;25.17;18.48;;;8.40;99.90;;;;;;4850924;29;20541;-90
2021/12/14 04:08:25;;;;;;;24.08;17.45;;;8.40;99.90;;;;;;4850815;29;20064;-90
2021/12/14 04:10:52;;;;;;;26.52;18.05;;;8.40;99.90;;;;;;4851049;29;20025;-90
2021/12/14 04:13:20;;;;;;;24.98;17.63;;;8.40;99.90;;;;;;4850844;29;20025;-90
2021/12/14 04:15:47;;;;;;;23.45;17.35;;;8.40;99.90;;;;;;4850161;29;20022;-90
2021/12/14 04:18:13;;;;;;;25.80;19.58;;;8.40;99.90;;;;;;4850191;29;20025;-89
2021/12/14 04:20:42;;;;;;;29.50;19.50;;;8.30;99.90;;;;;;4849703;29;20037;-91
2021/12/14 04:23:30;;;;;;;24.65;17.88;;;8.40;99.90;;;;;;4849519;29;20044;-91
2021/12/14 04:25:58;;;;;;;26.95;18.67;;;8.40;99.90;;;;;;4849400;29;20029;-90
2021/12/14 04:28:29;;;;;;;26.02;18.83;;;8.30;99.90;;;;;;4849310;29;20065;-85
2021/12/14 04:30:55;;;;;;;26.42;18.20;;;8.30;99.90;;;;;;4849052;29;20056;-90
2021/12/14 04:33:28;;;;;;;27.70;20.45;;;8.30;99.90;;;;;;4849142;29;20022;-91
2021/12/14 04:35:55;;;;;;;29.00;19.98;;;8.30;99.90;;;;;;4850094;29;20078;-90
2021/12/14 04:38:28;;;;;;;27.10;19.20;;;8.30;99.90;;;;;;4849770;29;20101;-90
2021/12/14 04:52:01;;;;;;;25.58;17.85;;;8.30;99.90;;;;;;4866122;29;20081;-88
2021/12/14 04:54:32;;;;;;;27.48;19.67;;;8.30;99.90;;;;;;4847895;29;20036;-88
2021/12/14 04:56:59;;;;;;;26.15;18.83;;;8.30;99.90;;;;;;4850099;29;20033;-91
2021/12/14 04:59:32;;;;;;;24.60;17.60;;;8.30;99.90;;;;;;4849425;29;20141;-89
2021/12/14 05:02:10;;;;;;;;;;;8.30;99.90;;;;;;4849327;29;20034;-89
2021/12/14 05:04:37;;;;;;;22.23;17.00;;;8.30;99.90;;;;;;4849551;29;20278;-89
2021/12/14 05:07:26;;;;;;;22.40;16.38;;;8.20;99.90;;;;;;4848068;29;20385;-89
2021/12/14 05:09:50;;;;;;;24.55;17.58;;;8.30;99.90;;;;;;4865480;29;20038;-90
2021/12/14 05:12:38;;;;;;;25.15;16.50;;;8.20;99.90;;;;;;4849291;29;20512;-91
2021/12/14 05:15:09;;;;;;;25.52;17.48;;;8.20;99.90;;;;;;4848749;29;20173;-91
2021/12/14 05:17:38;;;;;;;23.10;17.27;;;8.30;99.90;;;;;;4849417;29;20481;-90
2021/12/14 05:20:06;;;;;;;22.27;15.85;;;8.20;99.90;;;;;;4849344;29;20129;-89
2021/12/14 05:22:34;;;;;;;21.38;16.05;;;8.30;99.90;;;;;;4865380;29;20492;-88
2021/12/14 05:25:14;;;;;;;22.48;15.73;;;8.20;99.90;;;;;;4848886;29;20030;-89
2021/12/14 05:27:45;;;;;;;21.73;15.50;;;8.20;99.90;;;;;;4847557;29;20045;-90
2021/12/14 05:30:22;;;;;;;22.30;15.05;;;8.20;99.90;;;;;;4847120;29;20037;-89
2021/12/14 05:32:49;;;;;;;19.92;13.93;;;8.20;99.90;;;;;;4848935;29;20037;-89
2021/12/14 05:35:18;;;;;;;23.58;15.07;;;8.20;99.90;;;;;;4848448;29;20021;-87
2021/12/14 05:37:53;;;;;;;21.98;15.35;;;8.20;99.90;;;;;;4848618;29;20480;-94
2021/12/14 05:43:08;;;;;;;19.47;12.90;;;8.20;99.90;;;;;;4870040;29;20072;-92
2021/12/14 05:45:43;;;;;;;20.10;12.70;;;8.20;99.90;;;;;;4869721;29;20045;-92
2021/12/14 05:48:18;;;;;;;18.58;11.95;;;8.20;99.90;;;;;;4855223;29;20134;-90
2021/12/14 05:50:47;;;;;;;17.33;12.00;;;8.20;99.90;;;;;;4852503;29;20048;-93
2021/12/14 05:53:32;;;;;;;18.88;12.00;;;8.20;99.90;;;;;;4846985;29;20037;-95
2021/12/14 05:56:01;;;;;;;20.23;11.98;;;8.20;99.90;;;;;;4878724;29;20030;-93
2021/12/14 05:58:28;;;;;;;18.00;12.35;;;8.20;99.90;;;;;;4848749;29;20029;-93
2021/12/14 06:00:58;;;;;;;20.98;13.63;;;8.20;99.90;;;;;;4845635;29;20120;-93
2021/12/14 06:04:22;;;;;;;22.05;13.77;;;8.20;99.90;;;;;;4857624;29;20029;-96
2021/12/14 06:06:52;;;;;;;24.50;14.65;;;8.20;99.90;;;;;;4819271;29;20046;-91
2021/12/14 06:09:33;;;;;;;22.33;14.63;;;8.20;99.90;;;;;;4877949;23;20045;-94
2021/12/14 06:12:06;;;;;;;24.63;15.25;;;8.20;99.90;;;;;;4882750;29;20044;-93
2021/12/14 06:14:32;;;;;;;20.73;12.82;;;8.20;99.90;;;;;;4884020;29;20029;-93
2021/12/14 06:17:09;;;;;;;26.45;14.20;;;8.20;99.90;;;;;;4900644;29;20036;-94
2021/12/14 06:20:00;;;;;;;24.75;15.07;;;8.20;99.90;;;;;;4902147;29;20039;-94
2021/12/14 06:22:52;;;;;;;23.60;15.02;;;8.20;99.90;;;;;;4881401;29;20026;-94
2021/12/14 06:25:26;;;;;;;26.00;15.15;;;8.20;99.90;;;;;;4867304;29;20120;-92
2021/12/14 06:28:01;;;;;;;27.92;16.42;;;8.20;99.90;;;;;;4885329;29;20026;-92
2021/12/14 06:30:47;;;;;;;25.17;15.43;;;8.10;99.90;;;;;;4875242;29;20119;-88
2021/12/14 06:33:16;;;;;;;23.80;15.00;;;8.20;99.90;;;;;;4884327;29;20073;-92
2021/12/14 06:35:47;;;;;;;22.95;14.73;;;8.20;99.90;;;;;;4887553;29;20044;-93
2021/12/14 06:40:49;;;;;;;25.70;16.10;;;8.20;99.90;;;;;;4908285;29;20464;-93
2021/12/14 06:43:28;;;;;;;27.73;16.48;;;8.20;99.90;;;;;;4888358;29;20052;-92
2021/12/14 06:46:04;;;;;;;27.50;16.05;;;8.20;99.90;;;;;;4900184;29;20038;-93
2021/12/14 06:51:56;;;;;;;23.15;14.93;;;8.20;99.90;;;;;;4936977;29;20027;-92
2021/12/14 06:54:30;;;;;;;28.00;16.00;;;8.10;99.90;;;;;;4907909;29;20053;-91
2021/12/14 06:57:14;;;;;;;;;;;;;;;;;;;;;
2021/12/14 06:59:40;;;;;;;23.05;14.38;;;8.20;99.90;;;;;;4907853;29;20104;-93
2021/12/14 07:02:28;;;;;;;24.17;14.55;;;8.10;99.90;;;;;;4885250;29;20052;-92
2021/12/14 07:05:04;;;;;;;24.73;14.82;;;8.20;99.90;;;;;;4889297;29;20040;-94
2021/12/14 07:11:09;;;;;;;26.50;15.73;;;8.20;99.90;;;;;;4920616;29;20064;-94
2021/12/14 07:13:54;;;;;;;;;;;;;;;;;;;;;
2021/12/14 07:20:18;;;;;;;26.48;16.25;;;8.20;99.90;;;;;;4874267;29;20036;-94
2021/12/14 07:23:18;;;;;;;27.80;16.92;;;8.20;99.90;;;;;;4894195;29;20032;-95
2021/12/14 07:26:37;;;;;;;31.35;17.60;;;8.20;99.90;;;;;;4887977;29;20047;-94
2021/12/14 07:29:12;;;;;;;28.73;17.73;;;8.20;99.90;;;;;;4842742;29;20106;-95
2021/12/14 07:32:00;;;;;;;30.25;18.15;;;8.10;99.90;;;;;;4864850;29;20041;-94
2021/12/14 07:34:34;;;;;;;31.67;19.00;;;8.20;99.90;;;;;;4859247;29;20102;-96
2021/12/14 07:37:14;;;;;;;31.40;18.75;;;8.20;99.90;;;;;;4869273;29;20150;-95
2021/12/14 07:39:50;;;;;;;30.35;19.05;;;8.10;99.90;;;;;;4843616;29;20030;-95
2021/12/14 07:43:14;;;;;;;;;;;;;;;;;;;;;
2021/12/14 07:45:41;;;;;;;27.95;17.55;;;8.20;99.90;;;;;;4897253;29;20060;-95
2021/12/14 07:48:19;;;;;;;;;;;;;;;;;;;;;
2021/12/14 07:52:10;;;;;;;27.20;16.90;;;8.20;99.90;;;;;;4915420;29;20088;-94
2021/12/14 07:55:09;;;;;;;31.20;19.40;;;8.20;99.90;;;;;;4895981;29;20053;-94
2021/12/14 07:57:41;;;;;;;31.60;19.30;;;8.20;99.90;;;;;;4904938;29;20035;-94
2021/12/14 08:00:36;;;;;;;;;;;;;;;;;;;;;
2021/12/14 08:03:33;;;;;;;30.55;19.50;;;8.20;99.90;;;;;;4898150;29;20076;-94
2021/12/14 08:06:03;;;;;;;31.92;19.52;;;8.10;99.90;;;;;;4857197;23;20096;-88
2021/12/14 08:08:48;;;;;;;34.58;19.80;;;8.20;99.90;;;;;;4875190;29;20054;-86
2021/12/14 08:14:02;;;;;;;32.13;19.02;;;8.20;99.90;;;;;;4870454;29;20033;-85
2021/12/14 08:16:39;;;;;;;36.03;21.13;;;8.20;99.90;;;;;;4949655;24;20057;-87
2021/12/14 08:19:05;;;;;;;35.35;21.02;;;8.20;99.90;;;;;;4857759;29;20026;-86
2021/12/14 08:21:30;;;;;;;31.45;19.45;;;8.20;99.90;;;;;;4882927;29;20571;-88
2021/12/14 08:24:07;;;;;;;31.73;19.05;;;8.20;99.90;;;;;;4892423;29;20100;-91
2021/12/14 08:26:39;;;;;;;32.03;19.75;;;8.30;99.90;;;;;;4869835;29;20025;-89
2021/12/14 08:29:20;;;;;;;39.13;22.92;;;8.30;99.90;;;;;;4872895;29;20021;-90
2021/12/14 08:32:07;;;;;;;35.13;22.08;;;8.30;99.90;;;;;;4885597;29;20025;-87
2021/12/14 08:34:38;;;;;;;36.08;20.92;;;8.30;99.90;;;;;;4870497;29;20017;-90
2021/12/14 08:37:09;;;;;;;37.45;22.67;;;8.30;99.90;;;;;;4881224;29;20029;-88
2021/12/14 08:40:02;;;;;;;38.45;22.73;;;8.30;99.90;;;;;;4870282;29;20021;-88
2021/12/14 08:43:08;;;;;;;39.10;23.20;;;8.30;99.90;;;;;;4872611;29;20044;-86
2021/12/14 08:45:55;;;;;;;34.90;21.42;;;8.30;99.90;;;;;;4889993;29;20072;-85
2021/12/14 08:48:30;;;;;;;37.40;22.45;;;8.30;99.90;;;;;;4861011;29;20080;-88
2021/12/14 08:50:58;;;;;;;34.53;20.88;;;8.30;99.90;;;;;;4873226;29;20021;-89
2021/12/14 08:53:29;;;;;;;37.03;21.65;;;8.40;99.90;;;;;;4868124;29;20036;-89
2021/12/14 08:55:57;;;;;;;35.38;22.23;;;8.40;99.90;;;;;;4877094;29;20048;-88
2021/12/14 08:58:25;;;;;;;39.30;22.77;;;8.50;99.90;;;;;;4887161;29;20017;-91
2021/12/14 09:00:55;;;;;;;37.83;23.15;;;8.50;99.90;;;;;;4893048;29;20029;-89
2021/12/14 09:03:32;;;;;;;39.17;24.55;;;8.50;99.90;;;;;;4866795;29;20100;-92
2021/12/14 09:06:10;;;;;;;37.78;23.10;;;8.50;99.90;;;;;;4901777;29;20049;-90
2021/12/14 09:08:39;;;;;;;40.10;24.45;;;8.50;99.90;;;;;;4891523;29;20066;-92
2021/12/14 09:11:08;;;;;;;41.90;24.90;;;8.60;99.90;;;;;;4883933;29;20033;-93
2021/12/14 09:13:34;;;;;;;43.28;24.88;;;8.60;99.90;;;;;;4887576;29;20015;-89
2021/12/14 09:16:22;;;;;;;;;;;;;;;;;;;;;
2021/12/14 09:18:58;;;;;;;39.10;24.27;;;8.70;99.90;;;;;;4889769;29;20092;-91
2021/12/14 09:21:32;;;;;;;41.88;25.88;;;8.70;99.90;;;;;;4871568;29;20836;-92
2021/12/14 09:24:01;;;;;;;44.50;25.90;;;8.70;99.90;;;;;;4866904;29;20407;-92
2021/12/14 09:26:34;;;;;;;44.10;26.58;;;8.80;99.90;;;;;;4884804;29;20028;-92
2021/12/14 09:29:00;;;;;;;42.72;25.55;;;8.80;99.90;;;;;;4867709;29;20054;-92
2021/12/14 09:31:31;;;;;;;49.03;28.02;;;8.80;99.90;;;;;;4870402;29;20428;-91
2021/12/14 09:33:59;;;;;;;48.78;28.77;;;8.80;99.90;;;;;;4869578;29;20057;-92
2021/12/14 09:36:28;;;;;;;44.20;25.85;;;8.80;99.90;;;;;;4869100;29;20017;-93
2021/12/14 09:39:06;;;;;;;49.08;29.17;;;8.80;99.90;;;;;;4868740;29;20025;-92
2021/12/14 09:41:33;;;;;;;48.20;28.17;;;8.80;99.90;;;;;;4884961;29;20041;-92
2021/12/14 09:44:10;;;;;;;48.90;27.67;;;8.80;99.90;;;;;;4870408;29;20029;-88
2021/12/14 09:46:37;;;;;;;45.78;26.85;;;8.80;99.90;;;;;;4859693;29;20476;-90
2021/12/14 09:49:06;;;;;;;50.30;27.92;;;8.80;99.90;;;;;;4873633;29;20044;-92
2021/12/14 09:51:49;;;;;;;49.47;28.23;;;8.90;99.90;;;;;;4871268;29;20029;-92
2021/12/14 09:54:18;;;;;;;46.53;27.08;;;8.90;99.90;;;;;;4868918;29;20512;-91
2021/12/14 09:56:52;;;;;;;42.13;25.35;;;8.90;99.90;;;;;;4853876;29;20025;-91
2021/12/14 09:59:18;;;;;;;46.60;27.52;;;8.90;99.90;;;;;;4885269;29;20029;-92
2021/12/14 10:01:56;;;;;;;55.67;30.77;;;8.90;99.90;;;;;;4886459;29;20131;-90
2021/12/14 10:04:28;;;;;;;46.80;28.25;;;8.90;99.90;;;;;;4887731;29;20053;-92
2021/12/14 10:06:58;;;;;;;56.10;32.33;;;8.90;99.90;;;;;;4873534;29;20029;-87
2021/12/14 10:09:27;;;;;;;51.83;30.27;;;8.90;99.90;;;;;;4869004;29;20032;-89
2021/12/14 10:12:15;;;;;;;52.88;30.77;;;8.90;99.90;;;;;;4868507;29;20030;-92
2021/12/14 10:14:47;;;;;;;47.85;27.05;;;8.90;99.90;;;;;;4872737;29;20391;-90
2021/12/14 10:17:15;;;;;;;51.33;29.42;;;8.90;99.90;;;;;;4844898;29;20053;-92
2021/12/14 10:19:43;;;;;;;59.25;32.90;;;8.90;99.90;;;;;;4851600;29;20026;-91
2021/12/14 10:22:38;;;;;;;49.95;31.10;;;8.90;99.90;;;;;;4872565;29;20523;-88
2021/12/14 10:25:27;;;;;;;56.47;32.40;;;8.90;99.90;;;;;;4894128;29;20037;-89
2021/12/14 10:27:58;;;;;;;48.40;28.20;;;9.00;99.90;;;;;;4893064;29;20044;-88
2021/12/14 10:30:40;;;;;;;53.85;30.65;;;9.00;99.90;;;;;;4984506;23;20416;-89
2021/12/14 10:33:10;;;;;;;56.97;33.55;;;9.00;99.90;;;;;;4841904;29;20037;-92
2021/12/14 10:35:50;;;;;;;57.97;32.92;;;9.10;99.90;;;;;;4855294;29;20053;-91
2021/12/14 10:38:38;;;;;;;57.00;33.53;;;9.20;99.90;;;;;;5065888;23;20152;-87
2021/12/14 10:44:16;;;;;;;63.88;34.45;;;9.30;99.90;;;;;;4838223;29;20049;-89
2021/12/14 10:49:09;;;;;;;62.38;34.75;;;9.30;99.90;;;;;;4892325;23;20106;-88
2021/12/14 10:54:43;;;;;;;56.58;33.30;;;9.40;99.90;;;;;;5354089;23;20019;-89
2021/12/14 10:58:20;;;;;;;;;;;;;;;;;;;;;
2021/12/14 11:05:13;;;;;;;;;;;;;;;;;;;;;
2021/12/14 11:12:05;;;;;;;;;;;;;;;;;;;;;
2021/12/14 11:15:26;;;;;;;61.83;35.35;;;9.40;99.90;;;;;;4762657;29;20169;-94
2021/12/14 11:18:50;;;;;;;;;;;;;;;;;;;;;
2021/12/14 11:22:22;;;;;;;;;;;;;;;;;;;;;
2021/12/14 11:25:36;;;;;;;;;;;;;;;;;;;;;
2021/12/14 11:32:53;;;;;;;;;;;;;;;;;;;;;
2021/12/14 12:05:26;;;;;;;;;;;;;;;;;;;;;
2021/12/14 12:11:19;;;;;;;66.47;38.65;;;9.70;99.90;;;;;;4852713;23;20060;-90
2021/12/14 12:13:46;;;;;;;65.80;38.25;;;9.70;99.90;;;;;;4900433;29;20151;-90
2021/12/14 12:16:20;;;;;;;73.55;43.00;;;9.70;99.90;;;;;;4903006;29;20505;-92
2021/12/14 12:19:26;;;;;;;72.00;42.03;;;9.70;99.90;;;;;;4904254;29;20045;-89
2021/12/14 12:22:07;;;;;;;67.35;38.28;;;9.70;99.90;;;;;;4849976;29;20042;-84
2021/12/14 12:24:55;;;;;;;69.13;41.15;;;9.70;99.90;;;;;;4901782;29;20056;-88
2021/12/14 12:27:23;;;;;;;71.78;39.83;;;9.70;99.90;;;;;;4906666;29;20028;-85
2021/12/14 12:30:10;;;;;;;70.07;41.63;;;9.60;99.90;;;;;;4907428;29;20027;-86
2021/12/14 12:32:36;;;;;;;66.60;39.40;;;9.60;99.90;;;;;;4904719;29;20516;-88
2021/12/14 12:35:21;;;;;;;69.25;39.78;;;9.60;99.90;;;;;;4903284;29;20032;-88
2021/12/14 12:37:47;;;;;;;67.00;38.40;;;9.60;99.90;;;;;;4884864;29;20089;-91
2021/12/14 12:40:18;;;;;;;63.70;38.17;;;9.50;99.90;;;;;;4882904;29;20029;-84
2021/12/14 12:42:44;;;;;;;61.97;37.20;;;9.50;99.90;;;;;;4883945;29;20037;-90
2021/12/14 12:45:34;;;;;;;75.60;42.33;;;9.50;99.90;;;;;;4904925;29;20052;-88
2021/12/14 12:48:10;;;;;;;69.85;40.15;;;9.60;99.90;;;;;;4900794;29;20021;-86
2021/12/14 12:50:58;;;;;;;74.65;43.40;;;9.60;99.90;;;;;;4906550;29;20045;-91
2021/12/14 12:53:28;;;;;;;74.38;42.55;;;9.60;99.90;;;;;;4909564;29;20032;-87
2021/12/14 12:56:04;;;;;;;69.68;39.95;;;9.60;99.90;;;;;;4907450;29;20021;-86
2021/12/14 12:58:30;;;;;;;72.55;41.85;;;9.60;99.90;;;;;;4908405;29;20039;-87
2021/12/14 13:01:00;;;;;;;70.25;40.53;;;9.60;99.90;;;;;;4905474;29;20052;-87
2021/12/14 13:03:30;;;;;;;80.57;44.75;;;9.60;99.90;;;;;;4907978;29;20115;-90
2021/12/14 13:06:11;;;;;;;70.32;42.25;;;9.50;99.90;;;;;;4910139;29;20032;-88
2021/12/14 13:08:40;;;;;;;78.22;43.70;;;9.50;99.90;;;;;;4907247;29;20017;-88
2021/12/14 13:11:12;;;;;;;71.00;39.22;;;9.40;99.90;;;;;;4907820;29;20033;-88
2021/12/14 13:13:49;;;;;;;74.75;41.22;;;9.40;99.90;;;;;;4907246;29;20044;-89
2021/12/14 13:16:35;;;;;;;78.63;41.75;;;9.40;99.90;;;;;;4905625;29;20414;-89
2021/12/14 13:19:09;;;;;;;74.40;41.00;;;9.40;99.90;;;;;;4906424;29;20032;-90
2021/12/14 13:21:48;;;;;;;79.03;43.08;;;9.40;99.90;;;;;;4908086;29;20044;-90
2021/12/14 13:24:25;;;;;;;77.03;41.47;;;9.40;99.90;;;;;;4900876;29;20016;-87
2021/12/14 13:27:24;;;;;;;75.70;40.20;;;9.40;99.90;;;;;;4854942;29;20024;-85
2021/12/14 13:29:55;;;;;;;77.95;43.80;;;9.40;99.90;;;;;;4889755;29;20037;-93
2021/12/14 13:32:25;;;;;;;74.88;39.97;;;9.40;99.90;;;;;;4917820;29;20093;-90
2021/12/14 13:34:58;;;;;;;80.93;44.80;;;9.40;99.90;;;;;;4918284;29;20033;-90
2021/12/14 13:37:31;;;;;;;75.75;41.25;;;9.30;99.90;;;;;;4912260;29;20468;-86
2021/12/14 13:39:59;;;;;;;76.05;41.92;;;9.30;99.90;;;;;;4912359;29;20017;-86
2021/12/14 13:42:46;;;;;;;79.32;44.10;;;9.30;99.90;;;;;;4906246;29;20040;-88
2021/12/14 13:45:24;;;;;;;83.38;44.92;;;9.30;99.90;;;;;;4905855;29;20051;-89
2021/12/14 13:47:51;;;;;;;80.03;42.75;;;9.30;99.90;;;;;;4904568;29;20028;-91
2021/12/14 13:50:22;;;;;;;75.85;41.30;;;9.30;99.90;;;;;;4906094;29;20060;-88
2021/12/14 13:52:48;;;;;;;80.18;42.22;;;9.30;99.90;;;;;;4906564;29;20031;-90
2021/12/14 13:55:22;;;;;;;85.05;45.05;;;9.30;99.90;;;;;;4901199;29;20361;-94
2021/12/14 13:58:20;;;;;;;85.15;42.83;;;9.30;99.90;;;;;;4899293;29;20032;-95
2021/12/14 14:01:32;;;;;;;;;;;;;;;;;;;;;
2021/12/14 14:04:02;;;;;;;77.90;41.92;;;9.30;99.90;;;;;;4900297;29;20054;-92
2021/12/14 14:06:31;;;;;;;75.47;40.80;;;9.20;99.90;;;;;;4900775;29;20037;-93
2021/12/14 14:09:24;;;;;;;79.57;41.33;;;9.20;99.90;;;;;;4897744;29;20024;-93
2021/12/14 14:11:51;;;;;;;81.80;44.07;;;9.30;99.90;;;;;;4896395;29;20057;-92
2021/12/14 14:14:17;;;;;;;80.25;43.13;;;9.30;99.90;;;;;;4894555;29;20036;-93
2021/12/14 14:16:50;;;;;;;77.57;41.42;;;9.30;99.90;;;;;;4895671;29;20047;-85
2021/12/14 14:19:23;;;;;;;69.70;39.22;;;9.30;99.90;;;;;;4895573;29;20067;-86
2021/12/14 14:21:54;;;;;;;70.40;39.38;;;9.30;99.90;;;;;;4896325;29;20380;-89
2021/12/14 14:24:42;;;;;;;73.18;39.30;;;9.30;99.90;;;;;;4897407;29;20045;-90
2021/12/14 14:27:40;;;;;;;71.90;38.58;;;9.30;99.90;;;;;;4890722;29;20111;-89
2021/12/14 14:30:46;;;;;;;73.55;40.35;;;9.30;99.90;;;;;;4897806;29;20033;-89
2021/12/14 14:33:31;;;;;;;75.82;42.35;;;9.30;99.90;;;;;;4898568;29;20079;-88
2021/12/14 14:36:05;;;;;;;70.00;39.05;;;9.30;99.90;;;;;;4899282;29;20029;-89
2021/12/14 14:38:39;;;;;;;78.03;41.13;;;9.30;99.90;;;;;;4898581;29;20041;-91
2021/12/14 14:41:07;;;;;;;87.53;44.45;;;9.30;99.90;;;;;;4895011;29;20109;-91
2021/12/14 14:43:53;;;;;;;83.40;45.47;;;9.30;99.90;;;;;;4908691;29;20537;-93
2021/12/14 14:46:37;;;;;;;71.32;38.10;;;9.30;99.90;;;;;;4908579;29;20044;-88
2021/12/14 14:49:17;;;;;;;69.43;38.70;;;9.30;99.90;;;;;;4907618;29;20092;-90
2021/12/14 14:51:53;;;;;;;78.15;41.42;;;9.30;99.90;;;;;;4898877;29;20029;-90
2021/12/14 14:54:41;;;;;;;76.30;40.00;;;9.30;99.90;;;;;;4887875;29;20029;-89
2021/12/14 14:57:06;;;;;;;66.97;35.72;;;9.40;99.90;;;;;;4902299;29;20029;-88
2021/12/14 14:59:33;;;;;;;71.93;38.75;;;9.40;99.90;;;;;;4903863;29;20089;-92
2021/12/14 15:01:59;;;;;;;75.22;38.13;;;9.40;99.90;;;;;;4888897;29;20041;-87
2021/12/14 15:04:26;;;;;;;79.20;40.20;;;9.40;99.90;;;;;;4906225;29;20025;-87
2021/12/14 15:06:54;;;;;;;83.30;43.88;;;9.40;99.90;;;;;;4904655;29;20036;-89
2021/12/14 15:09:31;;;;;;;84.22;44.22;;;9.40;99.90;;;;;;4889189;29;20061;-87
2021/12/14 15:12:16;;;;;;;83.15;44.30;;;9.50;99.90;;;;;;4909988;29;20052;-87
2021/12/14 15:14:42;;;;;;;78.88;40.25;;;9.40;99.90;;;;;;4904600;29;20484;-89
2021/12/14 15:17:25;;;;;;;80.78;41.45;;;9.50;99.90;;;;;;4907581;29;20035;-88
2021/12/14 15:19:56;;;;;;;84.65;42.42;;;9.50;99.90;;;;;;4910307;29;20029;-90
2021/12/14 15:22:34;;;;;;;94.55;46.63;;;9.50;99.90;;;;;;4908464;29;20476;-89